sensor_id;sensor_type;location;lat;lon;timestamp;pressure;altitude;pressure_sealevel;temperature;humidity
9905;BME280;4991;43.566;27.820;2023-06-14T00:00:13;98512.72;;;15.59;100.00
9905;BME280;4991;43.566;27.820;2023-06-14T00:02:40;98512.94;;;15.54;100.00
9905;BME280;4991;43.566;27.820;2023-06-14T00:05:06;98507.81;;;15.52;100.00
9905;BME280;4991;43.566;27.820;2023-06-14T00:07:41;98502.53;;;15.47;100.00
9905;BME280;4991;43.566;27.820;2023-06-14T00:10:13;98502.44;;;15.44;100.00
9905;BME280;4991;43.566;27.820;2023-06-14T00:12:39;98503.78;;;15.38;100.00
9905;BME280;4991;43.566;27.820;2023-06-14T00:15:05;98497.69;;;15.32;100.00
9905;BME280;4991;43.566;27.820;2023-06-14T00:17:31;98502.94;;;15.25;100.00
9905;BME280;4991;43.566;27.820;2023-06-14T00:19:58;98492.44;;;15.15;100.00
9905;BME280;4991;43.566;27.820;2023-06-14T00:22:24;98501.56;;;15.07;100.00
9905;BME280;4991;43.566;27.820;2023-06-14T00:24:54;98501.22;;;15.09;100.00
9905;BME280;4991;43.566;27.820;2023-06-14T00:27:19;98498.38;;;15.05;100.00
9905;BME280;4991;43.566;27.820;2023-06-14T00:29:45;98503.38;;;15.03;100.00
9905;BME280;4991;43.566;27.820;2023-06-14T00:32:11;98492.75;;;15.02;100.00
9905;BME280;4991;43.566;27.820;2023-06-14T00:34:36;98488.75;;;14.99;100.00
9905;BME280;4991;43.566;27.820;2023-06-14T00:37:02;98500.06;;;14.98;100.00
9905;BME280;4991;43.566;27.820;2023-06-14T00:39:27;98496.97;;;14.99;100.00
9905;BME280;4991;43.566;27.820;2023-06-14T00:41:53;98495.59;;;14.93;100.00
9905;BME280;4991;43.566;27.820;2023-06-14T00:44:19;98496.72;;;14.92;100.00
9905;BME280;4991;43.566;27.820;2023-06-14T00:46:47;98493.66;;;14.94;100.00
9905;BME280;4991;43.566;27.820;2023-06-14T00:49:14;98498.00;;;14.95;100.00
9905;BME280;4991;43.566;27.820;2023-06-14T00:51:42;98494.66;;;14.89;100.00
9905;BME280;4991;43.566;27.820;2023-06-14T00:54:08;98499.25;;;14.97;100.00
9905;BME280;4991;43.566;27.820;2023-06-14T00:56:36;98484.06;;;15.00;100.00
9905;BME280;4991;43.566;27.820;2023-06-14T00:59:03;98489.09;;;14.98;100.00
9905;BME280;4991;43.566;27.820;2023-06-14T01:01:29;98491.56;;;14.91;100.00
9905;BME280;4991;43.566;27.820;2023-06-14T01:03:59;98491.91;;;14.89;100.00
9905;BME280;4991;43.566;27.820;2023-06-14T01:09:37;98496.16;;;14.87;100.00
9905;BME280;4991;43.566;27.820;2023-06-14T01:14:46;98491.31;;;14.72;100.00
9905;BME280;4991;43.566;27.820;2023-06-14T01:17:14;98497.38;;;14.77;100.00
9905;BME280;4991;43.566;27.820;2023-06-14T01:19:43;98493.56;;;14.70;100.00
9905;BME280;4991;43.566;27.820;2023-06-14T01:22:09;98490.84;;;14.70;100.00
9905;BME280;4991;43.566;27.820;2023-06-14T01:24:35;98494.97;;;14.76;100.00
9905;BME280;4991;43.566;27.820;2023-06-14T01:27:02;98494.03;;;14.72;100.00
9905;BME280;4991;43.566;27.820;2023-06-14T01:29:29;98502.13;;;14.68;100.00
9905;BME280;4991;43.566;27.820;2023-06-14T01:31:58;98500.88;;;14.66;100.00
9905;BME280;4991;43.566;27.820;2023-06-14T01:34:25;98494.94;;;14.64;100.00
9905;BME280;4991;43.566;27.820;2023-06-14T01:36:52;98495.63;;;14.61;100.00
9905;BME280;4991;43.566;27.820;2023-06-14T01:39:21;98492.53;;;14.62;100.00
9905;BME280;4991;43.566;27.820;2023-06-14T01:41:49;98499.47;;;14.60;100.00
9905;BME280;4991;43.566;27.820;2023-06-14T01:44:17;98495.34;;;14.54;100.00
9905;BME280;4991;43.566;27.820;2023-06-14T01:46:43;98496.28;;;14.58;100.00
9905;BME280;4991;43.566;27.820;2023-06-14T01:49:10;98501.41;;;14.59;100.00
9905;BME280;4991;43.566;27.820;2023-06-14T01:51:36;98511.66;;;14.50;100.00
9905;BME280;4991;43.566;27.820;2023-06-14T01:54:01;98504.25;;;14.51;100.00
9905;BME280;4991;43.566;27.820;2023-06-14T01:56:27;98495.44;;;14.45;100.00
9905;BME280;4991;43.566;27.820;2023-06-14T01:58:53;98499.84;;;14.38;100.00
9905;BME280;4991;43.566;27.820;2023-06-14T02:01:19;98502.84;;;14.45;100.00
9905;BME280;4991;43.566;27.820;2023-06-14T02:03:47;98498.72;;;14.39;100.00
9905;BME280;4991;43.566;27.820;2023-06-14T02:06:13;98505.50;;;14.33;100.00
9905;BME280;4991;43.566;27.820;2023-06-14T02:08:41;98501.78;;;14.37;100.00
9905;BME280;4991;43.566;27.820;2023-06-14T02:11:08;98497.75;;;14.35;100.00
9905;BME280;4991;43.566;27.820;2023-06-14T02:13:34;98500.31;;;14.40;100.00
9905;BME280;4991;43.566;27.820;2023-06-14T02:16:00;98497.75;;;14.35;100.00
9905;BME280;4991;43.566;27.820;2023-06-14T02:18:26;98490.03;;;14.37;100.00
9905;BME280;4991;43.566;27.820;2023-06-14T02:20:52;98497.44;;;14.36;100.00
9905;BME280;4991;43.566;27.820;2023-06-14T02:23:18;98497.28;;;14.33;100.00
9905;BME280;4991;43.566;27.820;2023-06-14T02:25:44;98503.59;;;14.33;100.00
9905;BME280;4991;43.566;27.820;2023-06-14T02:28:11;98491.81;;;14.33;100.00
9905;BME280;4991;43.566;27.820;2023-06-14T02:30:37;98496.84;;;14.31;100.00
9905;BME280;4991;43.566;27.820;2023-06-14T02:33:02;98497.97;;;14.30;100.00
9905;BME280;4991;43.566;27.820;2023-06-14T02:35:30;98497.63;;;14.31;100.00
9905;BME280;4991;43.566;27.820;2023-06-14T02:37:55;98499.13;;;14.29;100.00
9905;BME280;4991;43.566;27.820;2023-06-14T02:40:21;98501.84;;;14.29;100.00
9905;BME280;4991;43.566;27.820;2023-06-14T02:42:47;98506.53;;;14.28;100.00
9905;BME280;4991;43.566;27.820;2023-06-14T02:45:13;98505.28;;;14.26;100.00
9905;BME280;4991;43.566;27.820;2023-06-14T02:47:40;98504.13;;;14.27;100.00
9905;BME280;4991;43.566;27.820;2023-06-14T02:50:06;98510.69;;;14.34;100.00
9905;BME280;4991;43.566;27.820;2023-06-14T02:52:35;98505.75;;;14.28;100.00
9905;BME280;4991;43.566;27.820;2023-06-14T02:55:00;98497.63;;;14.31;100.00
9905;BME280;4991;43.566;27.820;2023-06-14T02:57:26;98511.47;;;14.35;100.00
9905;BME280;4991;43.566;27.820;2023-06-14T02:59:52;98510.25;;;14.23;100.00
9905;BME280;4991;43.566;27.820;2023-06-14T03:02:17;98517.63;;;14.32;100.00
9905;BME280;4991;43.566;27.820;2023-06-14T03:04:43;98521.44;;;14.39;100.00
9905;BME280;4991;43.566;27.820;2023-06-14T03:07:10;98526.66;;;14.32;100.00
9905;BME280;4991;43.566;27.820;2023-06-14T03:09:36;98528.72;;;14.35;100.00
9905;BME280;4991;43.566;27.820;2023-06-14T03:12:03;98525.97;;;14.35;100.00
9905;BME280;4991;43.566;27.820;2023-06-14T03:14:29;98531.25;;;14.40;100.00
9905;BME280;4991;43.566;27.820;2023-06-14T03:16:56;98529.47;;;14.44;100.00
9905;BME280;4991;43.566;27.820;2023-06-14T03:19:22;98527.38;;;14.41;100.00
9905;BME280;4991;43.566;27.820;2023-06-14T03:21:48;98526.97;;;14.31;100.00
9905;BME280;4991;43.566;27.820;2023-06-14T03:24:14;98531.78;;;14.34;100.00
9905;BME280;4991;43.566;27.820;2023-06-14T03:26:42;98539.94;;;14.42;100.00
9905;BME280;4991;43.566;27.820;2023-06-14T03:29:07;98536.06;;;14.43;100.00
9905;BME280;4991;43.566;27.820;2023-06-14T03:31:34;98542.00;;;14.45;100.00
9905;BME280;4991;43.566;27.820;2023-06-14T03:34:01;98545.78;;;14.53;100.00
9905;BME280;4991;43.566;27.820;2023-06-14T03:36:27;98543.25;;;14.48;100.00
9905;BME280;4991;43.566;27.820;2023-06-14T03:38:53;98538.25;;;14.50;100.00
9905;BME280;4991;43.566;27.820;2023-06-14T03:41:20;98535.84;;;14.48;100.00
9905;BME280;4991;43.566;27.820;2023-06-14T03:43:46;98533.59;;;14.50;100.00
9905;BME280;4991;43.566;27.820;2023-06-14T03:46:12;98532.09;;;14.53;100.00
9905;BME280;4991;43.566;27.820;2023-06-14T03:48:37;98540.78;;;14.55;100.00
9905;BME280;4991;43.566;27.820;2023-06-14T03:51:04;98538.84;;;14.55;100.00
9905;BME280;4991;43.566;27.820;2023-06-14T03:53:30;98540.94;;;14.58;100.00
9905;BME280;4991;43.566;27.820;2023-06-14T03:55:56;98542.84;;;14.58;100.00
9905;BME280;4991;43.566;27.820;2023-06-14T03:58:22;98541.53;;;14.64;100.00
9905;BME280;4991;43.566;27.820;2023-06-14T04:00:48;98547.25;;;14.71;100.00
9905;BME280;4991;43.566;27.820;2023-06-14T04:03:14;98548.53;;;14.73;100.00
9905;BME280;4991;43.566;27.820;2023-06-14T04:05:41;98541.47;;;14.72;100.00
9905;BME280;4991;43.566;27.820;2023-06-14T04:08:14;98546.13;;;14.72;100.00
9905;BME280;4991;43.566;27.820;2023-06-14T04:10:40;98548.78;;;14.80;100.00
9905;BME280;4991;43.566;27.820;2023-06-14T04:13:06;98545.38;;;14.83;100.00
9905;BME280;4991;43.566;27.820;2023-06-14T04:15:32;98546.19;;;14.84;100.00
9905;BME280;4991;43.566;27.820;2023-06-14T04:17:59;98546.19;;;14.84;100.00
9905;BME280;4991;43.566;27.820;2023-06-14T04:20:24;98545.84;;;14.85;100.00
9905;BME280;4991;43.566;27.820;2023-06-14T04:22:51;98547.22;;;14.91;100.00
9905;BME280;4991;43.566;27.820;2023-06-14T04:25:16;98559.00;;;14.92;100.00
9905;BME280;4991;43.566;27.820;2023-06-14T04:27:42;98556.25;;;14.92;100.00
9905;BME280;4991;43.566;27.820;2023-06-14T04:30:09;98564.47;;;14.92;100.00
9905;BME280;4991;43.566;27.820;2023-06-14T04:32:35;98560.03;;;14.99;100.00
9905;BME280;4991;43.566;27.820;2023-06-14T04:35:06;98569.53;;;15.02;100.00
9905;BME280;4991;43.566;27.820;2023-06-14T04:37:32;98566.59;;;15.07;100.00
9905;BME280;4991;43.566;27.820;2023-06-14T04:39:58;98567.63;;;15.14;100.00
9905;BME280;4991;43.566;27.820;2023-06-14T04:42:24;98570.97;;;15.20;100.00
9905;BME280;4991;43.566;27.820;2023-06-14T04:44:56;98572.81;;;15.28;100.00
9905;BME280;4991;43.566;27.820;2023-06-14T04:47:21;98568.91;;;15.29;100.00
9905;BME280;4991;43.566;27.820;2023-06-14T04:49:47;98578.56;;;15.47;100.00
9905;BME280;4991;43.566;27.820;2023-06-14T04:52:13;98574.59;;;15.44;100.00
9905;BME280;4991;43.566;27.820;2023-06-14T04:54:39;98577.47;;;15.60;100.00
9905;BME280;4991;43.566;27.820;2023-06-14T04:57:09;98580.09;;;15.69;100.00
9905;BME280;4991;43.566;27.820;2023-06-14T04:59:40;98579.97;;;15.77;100.00
9905;BME280;4991;43.566;27.820;2023-06-14T05:02:06;98584.56;;;15.85;100.00
9905;BME280;4991;43.566;27.820;2023-06-14T05:04:32;98588.47;;;15.96;100.00
9905;BME280;4991;43.566;27.820;2023-06-14T05:07:01;98590.28;;;16.04;100.00
9905;BME280;4991;43.566;27.820;2023-06-14T05:09:27;98588.31;;;16.17;100.00
9905;BME280;4991;43.566;27.820;2023-06-14T05:11:53;98598.06;;;16.26;100.00
9905;BME280;4991;43.566;27.820;2023-06-14T05:14:18;98595.88;;;16.32;100.00
9905;BME280;4991;43.566;27.820;2023-06-14T05:16:44;98598.38;;;16.37;100.00
9905;BME280;4991;43.566;27.820;2023-06-14T05:19:10;98605.16;;;16.51;100.00
9905;BME280;4991;43.566;27.820;2023-06-14T05:21:36;98609.03;;;16.62;100.00
9905;BME280;4991;43.566;27.820;2023-06-14T05:24:02;98608.78;;;16.67;100.00
9905;BME280;4991;43.566;27.820;2023-06-14T05:26:28;98606.50;;;16.69;100.00
9905;BME280;4991;43.566;27.820;2023-06-14T05:28:57;98600.94;;;16.82;100.00
9905;BME280;4991;43.566;27.820;2023-06-14T05:31:24;98606.06;;;16.83;100.00
9905;BME280;4991;43.566;27.820;2023-06-14T05:33:51;98610.66;;;16.91;100.00
9905;BME280;4991;43.566;27.820;2023-06-14T05:36:17;98602.16;;;16.96;100.00
9905;BME280;4991;43.566;27.820;2023-06-14T05:38:43;98601.56;;;17.03;100.00
9905;BME280;4991;43.566;27.820;2023-06-14T05:41:09;98624.81;;;17.05;100.00
9905;BME280;4991;43.566;27.820;2023-06-14T05:43:34;98611.59;;;17.11;100.00
9905;BME280;4991;43.566;27.820;2023-06-14T05:46:00;98619.59;;;17.16;100.00
9905;BME280;4991;43.566;27.820;2023-06-14T05:48:25;98622.56;;;17.23;100.00
9905;BME280;4991;43.566;27.820;2023-06-14T05:50:51;98624.25;;;17.27;100.00
9905;BME280;4991;43.566;27.820;2023-06-14T05:53:17;98627.22;;;17.34;100.00
9905;BME280;4991;43.566;27.820;2023-06-14T05:55:42;98622.56;;;17.38;100.00
9905;BME280;4991;43.566;27.820;2023-06-14T05:58:08;98624.84;;;17.48;100.00
9905;BME280;4991;43.566;27.820;2023-06-14T06:00:34;98624.44;;;17.62;100.00
9905;BME280;4991;43.566;27.820;2023-06-14T06:03:00;98619.78;;;17.66;100.00
9905;BME280;4991;43.566;27.820;2023-06-14T06:05:26;98626.75;;;17.75;100.00
9905;BME280;4991;43.566;27.820;2023-06-14T06:07:51;98627.38;;;17.84;100.00
9905;BME280;4991;43.566;27.820;2023-06-14T06:10:17;98620.69;;;18.01;100.00
9905;BME280;4991;43.566;27.820;2023-06-14T06:12:43;98621.22;;;18.07;100.00
9905;BME280;4991;43.566;27.820;2023-06-14T06:15:09;98619.16;;;18.19;100.00
9905;BME280;4991;43.566;27.820;2023-06-14T06:17:38;98617.94;;;18.32;100.00
9905;BME280;4991;43.566;27.820;2023-06-14T06:20:05;98631.53;;;18.41;100.00
9905;BME280;4991;43.566;27.820;2023-06-14T06:22:34;98619.84;;;18.47;100.00
9905;BME280;4991;43.566;27.820;2023-06-14T06:24:59;98620.75;;;18.51;100.00
9905;BME280;4991;43.566;27.820;2023-06-14T06:27:25;98622.41;;;18.56;100.00
9905;BME280;4991;43.566;27.820;2023-06-14T06:29:51;98622.00;;;18.54;100.00
9905;BME280;4991;43.566;27.820;2023-06-14T06:32:18;98621.78;;;18.62;100.00
9905;BME280;4991;43.566;27.820;2023-06-14T06:34:44;98626.44;;;18.77;100.00
9905;BME280;4991;43.566;27.820;2023-06-14T06:37:10;98624.66;;;18.85;100.00
9905;BME280;4991;43.566;27.820;2023-06-14T06:39:36;98624.72;;;19.07;100.00
9905;BME280;4991;43.566;27.820;2023-06-14T06:42:01;98630.09;;;19.19;100.00
9905;BME280;4991;43.566;27.820;2023-06-14T06:44:27;98623.09;;;19.25;100.00
9905;BME280;4991;43.566;27.820;2023-06-14T06:46:53;98618.94;;;19.32;100.00
9905;BME280;4991;43.566;27.820;2023-06-14T06:49:18;98624.56;;;19.39;100.00
9905;BME280;4991;43.566;27.820;2023-06-14T06:51:59;98621.75;;;19.35;100.00
9905;BME280;4991;43.566;27.820;2023-06-14T06:54:25;98631.03;;;19.27;100.00
9905;BME280;4991;43.566;27.820;2023-06-14T06:56:50;98629.06;;;19.27;100.00
9905;BME280;4991;43.566;27.820;2023-06-14T06:59:16;98626.31;;;19.47;100.00
9905;BME280;4991;43.566;27.820;2023-06-14T07:01:42;98624.78;;;19.72;100.00
9905;BME280;4991;43.566;27.820;2023-06-14T07:04:07;98626.34;;;19.92;100.00
9905;BME280;4991;43.566;27.820;2023-06-14T07:06:33;98624.13;;;20.23;100.00
9905;BME280;4991;43.566;27.820;2023-06-14T07:08:59;98623.13;;;20.35;100.00
9905;BME280;4991;43.566;27.820;2023-06-14T07:11:27;98621.59;;;20.37;100.00
9905;BME280;4991;43.566;27.820;2023-06-14T07:13:53;98622.81;;;20.40;100.00
9905;BME280;4991;43.566;27.820;2023-06-14T07:16:18;98639.06;;;20.71;100.00
9905;BME280;4991;43.566;27.820;2023-06-14T07:18:44;98625.94;;;20.94;100.00
9905;BME280;4991;43.566;27.820;2023-06-14T07:21:09;98633.31;;;21.13;100.00
9905;BME280;4991;43.566;27.820;2023-06-14T07:23:35;98633.09;;;21.25;100.00
9905;BME280;4991;43.566;27.820;2023-06-14T07:26:01;98627.63;;;21.32;100.00
9905;BME280;4991;43.566;27.820;2023-06-14T07:28:27;98628.16;;;21.11;100.00
9905;BME280;4991;43.566;27.820;2023-06-14T07:30:52;98633.72;;;21.11;100.00
9905;BME280;4991;43.566;27.820;2023-06-14T07:33:18;98627.16;;;21.26;100.00
9905;BME280;4991;43.566;27.820;2023-06-14T07:35:43;98637.44;;;21.26;100.00
9905;BME280;4991;43.566;27.820;2023-06-14T07:38:09;98627.94;;;21.23;100.00
9905;BME280;4991;43.566;27.820;2023-06-14T07:40:35;98636.78;;;21.36;100.00
9905;BME280;4991;43.566;27.820;2023-06-14T07:43:00;98640.69;;;21.31;100.00
9905;BME280;4991;43.566;27.820;2023-06-14T07:45:27;98631.84;;;21.19;100.00
9905;BME280;4991;43.566;27.820;2023-06-14T07:47:53;98633.94;;;21.32;100.00
9905;BME280;4991;43.566;27.820;2023-06-14T07:50:18;98632.94;;;21.44;100.00
9905;BME280;4991;43.566;27.820;2023-06-14T07:52:44;98629.91;;;21.59;100.00
9905;BME280;4991;43.566;27.820;2023-06-14T07:55:10;98646.19;;;21.64;100.00
9905;BME280;4991;43.566;27.820;2023-06-14T07:57:36;98632.28;;;21.61;100.00
9905;BME280;4991;43.566;27.820;2023-06-14T08:00:03;98640.88;;;21.49;100.00
9905;BME280;4991;43.566;27.820;2023-06-14T08:02:31;98645.50;;;21.74;100.00
9905;BME280;4991;43.566;27.820;2023-06-14T08:04:57;98636.78;;;22.13;100.00
9905;BME280;4991;43.566;27.820;2023-06-14T08:07:24;98635.16;;;22.08;100.00
9905;BME280;4991;43.566;27.820;2023-06-14T08:09:50;98639.31;;;22.28;100.00
9905;BME280;4991;43.566;27.820;2023-06-14T08:12:16;98645.13;;;22.60;100.00
9905;BME280;4991;43.566;27.820;2023-06-14T08:14:42;98642.47;;;22.81;100.00
9905;BME280;4991;43.566;27.820;2023-06-14T08:17:08;98644.28;;;22.56;100.00
9905;BME280;4991;43.566;27.820;2023-06-14T08:19:33;98655.81;;;22.58;100.00
9905;BME280;4991;43.566;27.820;2023-06-14T08:21:59;98654.41;;;22.34;100.00
9905;BME280;4991;43.566;27.820;2023-06-14T08:24:25;98655.22;;;22.35;100.00
9905;BME280;4991;43.566;27.820;2023-06-14T08:26:53;98648.06;;;22.37;100.00
9905;BME280;4991;43.566;27.820;2023-06-14T08:29:19;98639.94;;;22.55;100.00
9905;BME280;4991;43.566;27.820;2023-06-14T08:31:45;98642.88;;;22.83;100.00
9905;BME280;4991;43.566;27.820;2023-06-14T08:34:11;98654.47;;;22.99;100.00
9905;BME280;4991;43.566;27.820;2023-06-14T08:36:36;98642.66;;;23.16;100.00
9905;BME280;4991;43.566;27.820;2023-06-14T08:39:02;98642.25;;;23.14;100.00
9905;BME280;4991;43.566;27.820;2023-06-14T08:41:28;98642.97;;;23.04;100.00
9905;BME280;4991;43.566;27.820;2023-06-14T08:43:55;98635.81;;;22.96;100.00
9905;BME280;4991;43.566;27.820;2023-06-14T08:46:21;98641.25;;;22.82;100.00
9905;BME280;4991;43.566;27.820;2023-06-14T08:48:51;98644.13;;;22.38;100.00
9905;BME280;4991;43.566;27.820;2023-06-14T08:51:20;98639.97;;;22.15;100.00
9905;BME280;4991;43.566;27.820;2023-06-14T08:53:55;98640.56;;;22.38;100.00
9905;BME280;4991;43.566;27.820;2023-06-14T08:56:31;98628.59;;;22.84;100.00
9905;BME280;4991;43.566;27.820;2023-06-14T08:58:58;98631.94;;;23.15;100.00
9905;BME280;4991;43.566;27.820;2023-06-14T09:01:28;98637.94;;;23.27;100.00
9905;BME280;4991;43.566;27.820;2023-06-14T09:03:54;98631.22;;;23.35;100.00
9905;BME280;4991;43.566;27.820;2023-06-14T09:06:23;98629.28;;;23.43;100.00
9905;BME280;4991;43.566;27.820;2023-06-14T09:08:50;98627.34;;;23.57;100.00
9905;BME280;4991;43.566;27.820;2023-06-14T09:11:17;98629.31;;;23.60;100.00
9905;BME280;4991;43.566;27.820;2023-06-14T09:13:45;98616.25;;;23.78;100.00
9905;BME280;4991;43.566;27.820;2023-06-14T09:16:11;98615.06;;;23.90;100.00
9905;BME280;4991;43.566;27.820;2023-06-14T09:18:43;98612.69;;;23.88;100.00
9905;BME280;4991;43.566;27.820;2023-06-14T09:21:11;98618.56;;;23.48;100.00
9905;BME280;4991;43.566;27.820;2023-06-14T09:23:38;98610.56;;;23.29;100.00
9905;BME280;4991;43.566;27.820;2023-06-14T09:26:11;98605.44;;;23.38;100.00
9905;BME280;4991;43.566;27.820;2023-06-14T09:28:48;98609.81;;;23.50;100.00
9905;BME280;4991;43.566;27.820;2023-06-14T09:31:16;98603.88;;;23.55;100.00
9905;BME280;4991;43.566;27.820;2023-06-14T09:33:45;98605.13;;;23.82;100.00
9905;BME280;4991;43.566;27.820;2023-06-14T09:36:23;98607.53;;;23.90;100.00
9905;BME280;4991;43.566;27.820;2023-06-14T09:38:56;98614.66;;;23.77;100.00
9905;BME280;4991;43.566;27.820;2023-06-14T09:44:02;98607.94;;;23.96;100.00
9905;BME280;4991;43.566;27.820;2023-06-14T09:46:28;98599.97;;;24.26;100.00
9905;BME280;4991;43.566;27.820;2023-06-14T09:48:57;98615.88;;;25.68;100.00
9905;BME280;4991;43.566;27.820;2023-06-14T09:51:24;98603.31;;;27.53;100.00
9905;BME280;4991;43.566;27.820;2023-06-14T09:53:50;98597.09;;;29.66;100.00
9905;BME280;4991;43.566;27.820;2023-06-14T09:56:22;98601.56;;;30.47;100.00
9905;BME280;4991;43.566;27.820;2023-06-14T09:58:54;98602.38;;;29.80;100.00
9905;BME280;4991;43.566;27.820;2023-06-14T10:01:21;98616.06;;;29.58;100.00
9905;BME280;4991;43.566;27.820;2023-06-14T10:03:50;98606.97;;;28.03;100.00
9905;BME280;4991;43.566;27.820;2023-06-14T10:06:16;98608.78;;;27.90;100.00
9905;BME280;4991;43.566;27.820;2023-06-14T10:08:43;98601.31;;;28.76;100.00
9905;BME280;4991;43.566;27.820;2023-06-14T10:11:12;98603.81;;;30.04;100.00
9905;BME280;4991;43.566;27.820;2023-06-14T10:13:38;98604.34;;;29.99;100.00
9905;BME280;4991;43.566;27.820;2023-06-14T10:16:12;98610.06;;;28.35;100.00
9905;BME280;4991;43.566;27.820;2023-06-14T10:21:21;98605.72;;;27.21;100.00
9905;BME280;4991;43.566;27.820;2023-06-14T10:23:49;98597.41;;;28.27;100.00
9905;BME280;4991;43.566;27.820;2023-06-14T10:26:20;98607.94;;;28.66;100.00
9905;BME280;4991;43.566;27.820;2023-06-14T10:28:58;98608.19;;;29.89;100.00
9905;BME280;4991;43.566;27.820;2023-06-14T10:31:43;98598.00;;;33.05;100.00
9905;BME280;4991;43.566;27.820;2023-06-14T10:34:11;98617.69;;;31.99;100.00
9905;BME280;4991;43.566;27.820;2023-06-14T10:36:38;98617.13;;;29.29;100.00
9905;BME280;4991;43.566;27.820;2023-06-14T10:39:16;98609.28;;;27.81;100.00
9905;BME280;4991;43.566;27.820;2023-06-14T10:41:50;98614.78;;;28.15;100.00
9905;BME280;4991;43.566;27.820;2023-06-14T10:46:56;98613.63;;;31.87;100.00
9905;BME280;4991;43.566;27.820;2023-06-14T10:49:45;98609.34;;;31.70;100.00
9905;BME280;4991;43.566;27.820;2023-06-14T10:52:16;98610.72;;;31.91;100.00
9905;BME280;4991;43.566;27.820;2023-06-14T10:57:48;98612.56;;;33.46;99.67
9905;BME280;4991;43.566;27.820;2023-06-14T11:00:22;98620.88;;;31.88;100.00
9905;BME280;4991;43.566;27.820;2023-06-14T11:08:39;98609.09;;;33.21;100.00
9905;BME280;4991;43.566;27.820;2023-06-14T11:11:08;98604.31;;;34.31;95.74
9905;BME280;4991;43.566;27.820;2023-06-14T11:13:38;98613.69;;;34.68;92.47
9905;BME280;4991;43.566;27.820;2023-06-14T11:16:10;98616.63;;;34.37;90.24
9905;BME280;4991;43.566;27.820;2023-06-14T11:18:36;98625.22;;;32.52;96.74
9905;BME280;4991;43.566;27.820;2023-06-14T11:21:02;98615.88;;;31.80;100.00
9905;BME280;4991;43.566;27.820;2023-06-14T11:23:28;98608.88;;;32.94;96.93
9905;BME280;4991;43.566;27.820;2023-06-14T11:25:53;98609.69;;;34.38;90.16
9905;BME280;4991;43.566;27.820;2023-06-14T11:28:19;98603.25;;;34.38;84.65
9905;BME280;4991;43.566;27.820;2023-06-14T11:30:59;98609.50;;;34.33;82.94
9905;BME280;4991;43.566;27.820;2023-06-14T11:33:25;98605.41;;;35.96;77.49
9905;BME280;4991;43.566;27.820;2023-06-14T11:35:51;98602.25;;;36.36;73.72
9905;BME280;4991;43.566;27.820;2023-06-14T11:38:17;98609.16;;;36.35;72.85
9905;BME280;4991;43.566;27.820;2023-06-14T11:40:43;98609.94;;;34.71;77.61
9905;BME280;4991;43.566;27.820;2023-06-14T11:43:09;98604.41;;;31.99;92.42
9905;BME280;4991;43.566;27.820;2023-06-14T11:45:35;98615.59;;;30.79;100.00
9905;BME280;4991;43.566;27.820;2023-06-14T11:48:01;98608.47;;;30.10;100.00
9905;BME280;4991;43.566;27.820;2023-06-14T11:50:27;98613.66;;;30.12;100.00
9905;BME280;4991;43.566;27.820;2023-06-14T11:52:54;98607.59;;;30.29;100.00
9905;BME280;4991;43.566;27.820;2023-06-14T11:55:21;98607.75;;;29.90;100.00
9905;BME280;4991;43.566;27.820;2023-06-14T11:57:47;98607.31;;;29.56;100.00
9905;BME280;4991;43.566;27.820;2023-06-14T12:00:13;98610.31;;;29.30;100.00
9905;BME280;4991;43.566;27.820;2023-06-14T12:02:41;98593.53;;;29.81;100.00
9905;BME280;4991;43.566;27.820;2023-06-14T12:05:08;98593.69;;;30.71;100.00
9905;BME280;4991;43.566;27.820;2023-06-14T12:07:37;98591.25;;;31.42;100.00
9905;BME280;4991;43.566;27.820;2023-06-14T12:10:06;98592.78;;;31.31;100.00
9905;BME280;4991;43.566;27.820;2023-06-14T12:12:35;98581.50;;;31.60;100.00
9905;BME280;4991;43.566;27.820;2023-06-14T12:15:06;98587.22;;;31.43;100.00
9905;BME280;4991;43.566;27.820;2023-06-14T12:17:36;98590.63;;;30.65;100.00
9905;BME280;4991;43.566;27.820;2023-06-14T12:20:11;98588.53;;;29.53;100.00
9905;BME280;4991;43.566;27.820;2023-06-14T12:22:47;98584.38;;;29.42;100.00
9905;BME280;4991;43.566;27.820;2023-06-14T12:25:35;98585.19;;;30.58;100.00
9905;BME280;4991;43.566;27.820;2023-06-14T12:28:06;98581.16;;;31.45;100.00
9905;BME280;4991;43.566;27.820;2023-06-14T12:30:33;98576.47;;;33.41;92.40
9905;BME280;4991;43.566;27.820;2023-06-14T12:32:58;98581.31;;;34.02;87.96
9905;BME280;4991;43.566;27.820;2023-06-14T12:35:24;98567.22;;;33.19;87.87
9905;BME280;4991;43.566;27.820;2023-06-14T12:37:49;98572.19;;;34.56;86.35
9905;BME280;4991;43.566;27.820;2023-06-14T12:40:15;98561.38;;;36.43;77.53
9905;BME280;4991;43.566;27.820;2023-06-14T12:42:41;98566.56;;;35.88;76.71
9905;BME280;4991;43.566;27.820;2023-06-14T12:45:07;98563.00;;;36.58;74.81
9905;BME280;4991;43.566;27.820;2023-06-14T12:47:33;98559.53;;;36.78;69.22
9905;BME280;4991;43.566;27.820;2023-06-14T12:49:58;98565.44;;;34.71;75.41
9905;BME280;4991;43.566;27.820;2023-06-14T12:52:24;98562.72;;;33.31;81.72
9905;BME280;4991;43.566;27.820;2023-06-14T12:54:50;98555.13;;;33.19;82.73
9905;BME280;4991;43.566;27.820;2023-06-14T12:57:16;98549.38;;;31.82;90.37
9905;BME280;4991;43.566;27.820;2023-06-14T12:59:41;98562.06;;;30.67;98.52
9905;BME280;4991;43.566;27.820;2023-06-14T13:02:13;98552.97;;;31.32;96.73
9905;BME280;4991;43.566;27.820;2023-06-14T13:04:39;98551.09;;;31.92;92.96
9905;BME280;4991;43.566;27.820;2023-06-14T13:07:05;98557.75;;;31.07;96.10
9905;BME280;4991;43.566;27.820;2023-06-14T13:09:30;98554.47;;;31.08;94.94
9905;BME280;4991;43.566;27.820;2023-06-14T13:11:56;98555.03;;;31.44;91.50
9905;BME280;4991;43.566;27.820;2023-06-14T13:14:22;98555.72;;;31.48;91.51
9905;BME280;4991;43.566;27.820;2023-06-14T13:16:47;98543.22;;;31.62;91.01
9905;BME280;4991;43.566;27.820;2023-06-14T13:19:13;98548.63;;;31.94;91.61
9905;BME280;4991;43.566;27.820;2023-06-14T13:21:41;98552.53;;;32.22;88.70
9905;BME280;4991;43.566;27.820;2023-06-14T13:24:06;98546.66;;;34.20;83.00